Time;durP1;ratioP1;P1;durP2;ratioP2;P2;SDS_P1;SDS_P2;PMS_P1;PMS_P2;Temp;Humidity;BMP_temperature;BMP_pressure;BME280_temperature;BME280_humidity;BME280_pressure;Samples;Min_cycle;Max_cycle;Signal;HPM_P1;HPM_P2
2023/12/11 00:01:24;;;;;;;42.88;7.90;;;;;;;;;;5089979;28;20082;-73
2023/12/11 00:03:50;;;;;;;42.33;6.95;;;;;;;;;;5090088;28;20081;-74
2023/12/11 00:06:16;;;;;;;41.88;7.32;;;;;;;;;;5090261;28;20040;-73
2023/12/11 00:08:42;;;;;;;38.95;7.40;;;;;;;;;;5089980;28;20040;-74
2023/12/11 00:11:09;;;;;;;49.35;7.55;;;;;;;;;;5091522;28;20056;-73
2023/12/11 00:13:35;;;;;;;44.38;8.23;;;;;;;;;;5094253;28;20129;-73
2023/12/11 00:16:01;;;;;;;44.10;7.22;;;;;;;;;;5093954;28;20069;-74
2023/12/11 00:18:27;;;;;;;48.05;8.63;;;;;;;;;;5094499;28;20044;-74
2023/12/11 00:20:53;;;;;;;39.55;7.75;;;;;;;;;;5093788;28;20039;-73
2023/12/11 00:23:19;;;;;;;38.03;6.28;;;;;;;;;;5093930;28;20521;-74
2023/12/11 00:25:46;;;;;;;47.58;7.43;;;;;;;;;;5076787;28;20036;-74
2023/12/11 00:28:12;;;;;;;51.35;8.43;;;15.20;55.10;;;;;;5093898;28;20564;-74
2023/12/11 00:30:38;;;;;;;47.47;7.80;;;15.00;55.40;;;;;;5093637;28;20040;-73
2023/12/11 00:33:03;;;;;;;48.58;8.45;;;15.30;50.60;;;;;;5093773;28;20040;-74
2023/12/11 00:35:29;;;;;;;34.95;6.10;;;;;;;;;;5093533;28;20040;-73
2023/12/11 00:37:55;;;;;;;41.88;8.40;;;15.30;55.20;;;;;;5076631;28;20360;-74
2023/12/11 00:40:21;;;;;;;38.17;8.20;;;15.50;54.30;;;;;;5093262;28;20479;-74
2023/12/11 00:42:46;;;;;;;45.75;7.95;;;15.20;53.00;;;;;;5093853;28;20505;-74
2023/12/11 00:45:15;;;;;;;35.30;7.75;;;15.60;47.00;;;;;;5076701;28;20044;-74
2023/12/11 00:47:41;;;;;;;42.83;8.00;;;15.40;49.50;;;;;;5076483;28;20036;-74
2023/12/11 00:50:07;;;;;;;43.55;7.80;;;15.10;50.00;;;;;;5093324;28;20089;-74
2023/12/11 00:52:33;;;;;;;41.53;6.47;;;15.50;48.00;;;;;;5093467;28;20046;-74
2023/12/11 00:54:59;;;;;;;32.45;6.60;;;;;;;;;;5093062;28;20036;-73
2023/12/11 00:57:25;;;;;;;57.30;8.50;;;;;;;;;;5093294;28;20123;-73
2023/12/11 00:59:51;;;;;;;38.92;6.80;;;15.30;44.00;;;;;;5092983;28;20085;-74
2023/12/11 01:02:18;;;;;;;37.92;6.85;;;;;;;;;;5093276;28;20032;-74
2023/12/11 01:04:44;;;;;;;46.88;8.00;;;;;;;;;;5076355;28;20072;-74
2023/12/11 01:07:10;;;;;;;51.42;6.97;;;;;;;;;;5076176;28;20499;-74
2023/12/11 01:09:36;;;;;;;36.00;6.60;;;15.30;45.80;;;;;;5092962;28;20043;-74
2023/12/11 01:12:02;;;;;;;41.03;7.50;;;15.40;45.40;;;;;;5093067;28;20044;-72
2023/12/11 01:14:28;;;;;;;37.33;6.55;;;15.50;44.70;;;;;;5092864;28;20044;-74
2023/12/11 01:16:54;;;;;;;39.78;6.55;;;15.20;44.80;;;;;;5093021;28;20173;-74
2023/12/11 01:19:20;;;;;;;47.83;8.38;;;;;;;;;;5092708;28;20040;-73
2023/12/11 01:21:46;;;;;;;51.53;8.13;;;;;;;;;;5075110;28;20047;-74
2023/12/11 01:24:12;;;;;;;46.17;7.20;;;;;;;;;;5092217;28;20036;-74
2023/12/11 01:26:38;;;;;;;57.38;9.80;;;15.30;40.80;;;;;;5092839;28;20113;-74
2023/12/11 01:29:05;;;;;;;41.72;7.72;;;;;;;;;;5092467;28;20093;-72
2023/12/11 01:31:31;;;;;;;42.38;7.22;;;;;;;;;;5092621;28;20040;-73
2023/12/11 01:33:56;;;;;;;37.47;7.40;;;15.20;47.00;;;;;;5075618;28;20043;-74
2023/12/11 01:36:22;;;;;;;41.75;7.18;;;;;;;;;;5092401;28;20506;-74
2023/12/11 01:38:50;;;;;;;46.35;8.30;;;;;;;;;;5075496;28;20101;-74
2023/12/11 01:41:16;;;;;;;40.13;6.93;;;;;;;;;;5092207;28;20040;-73
2023/12/11 01:43:50;;;;;;;46.55;6.78;;;;;;;;;;5092599;28;20404;-74
2023/12/11 01:46:18;;;;;;;37.47;7.30;;;;;;;;;;5092645;28;20059;-74
2023/12/11 01:48:45;;;;;;;36.80;6.55;;;;;;;;;;5092683;28;20135;-74
2023/12/11 01:51:11;;;;;;;45.63;7.70;;;;;;;;;;5092014;28;20079;-73
2023/12/11 01:53:37;;;;;;;41.58;5.90;;;;;;;;;;5075533;28;20052;-74
2023/12/11 01:56:03;;;;;;;34.65;6.00;;;;;;;;;;5092192;28;20051;-74
2023/12/11 01:58:30;;;;;;;48.10;7.40;;;15.30;64.10;;;;;;5075185;28;20123;-74
2023/12/11 02:00:56;;;;;;;31.92;7.22;;;;;;;;;;5074925;28;20053;-74
2023/12/11 02:03:22;;;;;;;46.63;7.95;;;;;;;;;;5091919;28;20036;-74
2023/12/11 02:05:49;;;;;;;29.30;6.32;;;15.20;65.30;;;;;;5091791;28;20048;-73
2023/12/11 02:08:16;;;;;;;48.35;8.38;;;;;;;;;;5091792;28;20050;-74
2023/12/11 02:10:42;;;;;;;39.90;7.10;;;;;;;;;;5075081;28;20392;-74
2023/12/11 02:13:08;;;;;;;51.25;8.48;;;;;;;;;;5091850;28;20047;-74
2023/12/11 02:15:44;;;;;;;44.42;7.95;;;;;;;;;;5091597;28;20039;-74
2023/12/11 02:18:12;;;;;;;36.80;7.15;;;15.20;68.50;;;;;;5091507;28;20040;-74
2023/12/11 02:20:38;;;;;;;49.90;7.50;;;;;;;;;;5091421;28;20067;-74
2023/12/11 02:23:08;;;;;;;39.85;7.65;;;15.00;68.50;;;;;;5075109;28;20653;-74
2023/12/11 02:25:36;;;;;;;45.22;7.88;;;15.30;68.00;;;;;;5074452;28;20032;-74
2023/12/11 02:28:03;;;;;;;43.63;6.60;;;15.40;67.40;;;;;;5091479;28;20494;-73
2023/12/11 02:30:30;;;;;;;40.20;6.38;;;;;;;;;;5074405;28;20040;-74
2023/12/11 02:32:56;;;;;;;41.20;7.30;;;;;;;;;;5091373;28;20047;-73
2023/12/11 02:35:22;;;;;;;50.72;8.63;;;;;;;;;;5091257;28;20040;-73
2023/12/11 02:37:48;;;;;;;48.20;8.75;;;15.30;70.10;;;;;;5074366;28;20093;-73
2023/12/11 02:40:14;;;;;;;40.20;6.90;;;;;;;;;;5091136;28;20500;-73
2023/12/11 02:42:48;;;;;;;43.22;9.60;;;15.30;65.30;;;;;;5091288;28;20036;-73
2023/12/11 02:45:14;;;;;;;57.00;9.20;;;;;;;;;;5074267;28;20229;-74
2023/12/11 02:47:40;;;;;;;43.67;8.50;;;14.90;66.40;;;;;;5091125;28;20407;-74
2023/12/11 02:50:06;;;;;;;41.20;7.47;;;14.90;66.90;;;;;;5090973;28;20036;-73
2023/12/11 02:52:32;;;;;;;54.60;8.73;;;;;;;;;;5074090;28;20036;-74
2023/12/11 02:54:58;;;;;;;42.85;8.85;;;14.80;67.00;;;;;;5074394;28;20040;-74
2023/12/11 02:57:24;;;;;;;42.63;7.90;;;;;;;;;;5091115;28;20509;-74
2023/12/11 02:59:50;;;;;;;53.13;8.68;;;;;;;;;;5073664;28;20119;-74
2023/12/11 03:02:16;;;;;;;52.08;9.65;;;;;;;;;;5074117;28;20044;-73
2023/12/11 03:04:42;;;;;;;56.60;9.50;;;;;;;;;;5091053;28;20036;-73
2023/12/11 03:07:08;;;;;;;55.05;8.35;;;;;;;;;;5090814;28;20384;-73
2023/12/11 03:09:34;;;;;;;35.20;6.50;;;15.30;66.30;;;;;;5090640;28;20118;-74
2023/12/11 03:11:59;;;;;;;45.90;8.05;;;14.90;66.20;;;;;;5090842;28;20106;-74
2023/12/11 03:14:25;;;;;;;45.30;7.97;;;15.30;65.70;;;;;;5090525;28;20044;-74
2023/12/11 03:16:51;;;;;;;43.83;7.93;;;;;;;;;;5073896;28;20403;-74
2023/12/11 03:19:17;;;;;;;39.10;7.95;;;;;;;;;;5090404;28;20042;-74
2023/12/11 03:21:43;;;;;;;52.88;9.35;;;;;;;;;;5073950;28;20105;-73
2023/12/11 03:24:09;;;;;;;44.53;8.45;;;;;;;;;;5090879;28;20508;-76
2023/12/11 03:26:35;;;;;;;56.22;10.23;;;;;;;;;;5073666;28;20135;-73
2023/12/11 03:29:01;;;;;;;53.65;8.43;;;;;;;;;;5090331;28;20065;-74
2023/12/11 03:31:27;;;;;;;50.90;8.82;;;;;;;;;;5090585;28;20419;-74
2023/12/11 03:33:53;;;;;;;51.13;8.98;;;;;;;;;;5090344;28;20044;-74
2023/12/11 03:36:19;;;;;;;54.17;8.73;;;;;;;;;;5090605;28;20048;-73
2023/12/11 03:38:45;;;;;;;59.97;9.50;;;;;;;;;;5090503;28;20074;-73
2023/12/11 03:41:11;;;;;;;57.95;9.32;;;15.20;63.30;;;;;;5090448;28;20491;-74
2023/12/11 03:43:37;;;;;;;57.47;10.23;;;;;;;;;;5073434;28;20036;-73
2023/12/11 03:46:03;;;;;;;46.50;9.90;;;;;;;;;;5077492;28;20040;-73
2023/12/11 03:48:29;;;;;;;53.47;8.70;;;15.20;63.70;;;;;;5080171;28;20499;-74
2023/12/11 03:50:56;;;;;;;45.88;7.68;;;;;;;;;;5096773;28;20052;-74
2023/12/11 03:53:22;;;;;;;55.47;8.77;;;;;;;;;;5096920;28;20044;-74
2023/12/11 03:55:48;;;;;;;42.28;8.55;;;;;;;;;;5080060;28;20044;-73
2023/12/11 03:58:15;;;;;;;38.97;7.25;;;;;;;;;;5097076;28;20427;-73
2023/12/11 04:00:41;;;;;;;56.20;10.10;;;;;;;;;;5096745;28;20044;-74
2023/12/11 04:03:07;;;;;;;45.95;7.95;;;;;;;;;;5096914;28;20124;-74
2023/12/11 04:05:33;;;;;;;53.03;9.32;;;;;;;;;;5079816;28;20047;-74
2023/12/11 04:07:59;;;;;;;48.15;8.27;;;;;;;;;;5097118;28;20040;-74
2023/12/11 04:10:25;;;;;;;40.78;10.13;;;;;;;;;;5096658;28;20141;-74
2023/12/11 04:12:51;;;;;;;52.03;7.30;;;;;;;;;;5080020;28;20036;-74
2023/12/11 04:15:17;;;;;;;59.22;8.90;;;15.30;51.90;;;;;;5079801;28;20039;-74
2023/12/11 04:17:43;;;;;;;39.38;6.05;;;;;;;;;;5096859;28;20522;-74
2023/12/11 04:20:09;;;;;;;48.92;9.07;;;15.30;50.60;;;;;;5079659;28;20036;-74
2023/12/11 04:22:35;;;;;;;45.78;7.88;;;;;;;;;;5096790;28;20044;-74
2023/12/11 04:25:01;;;;;;;43.30;8.38;;;;;;;;;;5096404;28;20036;-74
2023/12/11 04:27:27;;;;;;;53.03;8.05;;;;;;;;;;5096693;28;20127;-74
2023/12/11 04:29:53;;;;;;;43.85;8.00;;;;;;;;;;5079597;28;20562;-74
2023/12/11 04:32:19;;;;;;;51.95;8.05;;;;;;;;;;5096698;28;20131;-74
2023/12/11 04:34:45;;;;;;;51.92;8.02;;;;;;;;;;5096473;28;20530;-74
2023/12/11 04:37:11;;;;;;;46.05;7.65;;;14.90;57.60;;;;;;5079694;28;20047;-76
2023/12/11 04:39:37;;;;;;;38.13;7.75;;;;;;;;;;5096386;28;20044;-75
2023/12/11 04:42:03;;;;;;;42.50;7.57;;;15.20;58.30;;;;;;5096586;28;20414;-76
2023/12/11 04:44:29;;;;;;;44.67;9.13;;;15.40;55.40;;;;;;5096443;28;20036;-74
2023/12/11 04:46:55;;;;;;;52.20;7.72;;;;;;;;;;5096576;28;20164;-74
2023/12/11 04:49:21;;;;;;;48.90;7.55;;;;;;;;;;5096264;28;20131;-74
2023/12/11 04:51:47;;;;;;;41.45;6.80;;;;;;;;;;5096547;28;20127;-74
2023/12/11 04:54:13;;;;;;;45.28;7.68;;;;;;;;;;5096332;28;20126;-73
2023/12/11 04:56:39;;;;;;;52.95;7.28;;;;;;;;;;5078675;28;20072;-73
2023/12/11 04:59:05;;;;;;;47.60;8.18;;;;;;;;;;5093212;28;20044;-74
2023/12/11 05:01:31;;;;;;;41.17;7.28;;;;;;;;;;5093242;28;20135;-74
2023/12/11 05:03:57;;;;;;;46.40;7.70;;;;;;;;;;5076451;28;20134;-75
2023/12/11 05:06:23;;;;;;;38.08;6.35;;;;;;;;;;5093145;28;20129;-74
2023/12/11 05:08:48;;;;;;;33.65;6.63;;;15.10;45.60;;;;;;5093009;28;20044;-75
2023/12/11 05:11:14;;;;;;;31.75;6.80;;;14.90;42.00;;;;;;5092831;28;20407;-74
2023/12/11 05:13:40;;;;;;;37.45;6.60;;;;;;;;;;5093171;28;20495;-72
2023/12/11 05:16:06;;;;;;;50.13;7.53;;;15.20;35.90;;;;;;5076030;28;20036;-74
2023/12/11 05:18:32;;;;;;;36.15;7.00;;;;;;;;;;5093043;28;20415;-74
2023/12/11 05:20:58;;;;;;;35.80;6.95;;;;;;;;;;5092618;28;20047;-74
2023/12/11 05:23:24;;;;;;;35.63;7.88;;;;;;;;;;5092683;28;20036;-74
2023/12/11 05:25:50;;;;;;;42.00;7.38;;;;;;;;;;5075761;28;20036;-73
2023/12/11 05:28:16;;;;;;;37.88;6.60;;;;;;;;;;5092875;28;20503;-74
2023/12/11 05:30:42;;;;;;;35.85;6.22;;;;;;;;;;5092726;28;20051;-74
2023/12/11 05:33:09;;;;;;;28.70;6.53;;;;;;;;;;5092594;28;20134;-74
2023/12/11 05:35:35;;;;;;;33.22;6.43;;;;;;;;;;5092422;28;20413;-74
2023/12/11 05:38:01;;;;;;;27.35;5.28;;;;;;;;;;5092345;28;20052;-74
2023/12/11 05:40:27;;;;;;;45.30;7.60;;;;;;;;;;5092304;28;20453;-74
2023/12/11 05:42:53;;;;;;;36.88;7.55;;;;;;;;;;5075565;28;20044;-74
2023/12/11 05:45:18;;;;;;;35.10;6.28;;;14.80;31.70;;;;;;5092450;28;20040;-74
2023/12/11 05:47:44;;;;;;;38.10;7.05;;;14.90;31.70;;;;;;5075559;28;20036;-74
2023/12/11 05:50:11;;;;;;;42.83;8.02;;;15.00;30.30;;;;;;5092024;28;20047;-75
2023/12/11 05:52:37;;;;;;;42.65;5.85;;;;;;;;;;5092157;28;20119;-74
2023/12/11 05:55:03;;;;;;;39.78;7.03;;;;;;;;;;5075117;28;20499;-74
2023/12/11 05:57:28;;;;;;;41.67;7.25;;;15.00;34.30;;;;;;5075491;28;20040;-73
2023/12/11 05:59:55;;;;;;;33.95;7.30;;;;;;;;;;5091814;28;20048;-73
2023/12/11 06:02:21;;;;;;;49.50;7.05;;;15.00;36.40;;;;;;5092045;28;20090;-75
2023/12/11 06:04:47;;;;;;;42.22;6.45;;;;;;;;;;5091833;28;20408;-74
2023/12/11 06:07:13;;;;;;;41.70;7.28;;;;;;;;;;5091793;28;20071;-74
2023/12/11 06:09:39;;;;;;;36.45;6.30;;;;;;;;;;5091524;28;20044;-73
2023/12/11 06:12:05;;;;;;;45.53;8.57;;;14.90;42.50;;;;;;5091950;28;20044;-74
2023/12/11 06:14:31;;;;;;;39.58;7.35;;;;;;;;;;5091767;28;20040;-74
2023/12/11 06:16:57;;;;;;;36.90;7.00;;;;;;;;;;5091751;28;20098;-74
2023/12/11 06:19:23;;;;;;;45.10;6.32;;;;;;;;;;5091381;28;20044;-74
2023/12/11 06:21:49;;;;;;;29.85;6.45;;;;;;;;;;5091600;28;20407;-74
2023/12/11 06:24:16;;;;;;;40.30;6.43;;;;;;;;;;5074522;28;20116;-74
2023/12/11 06:26:42;;;;;;;38.05;6.28;;;14.80;58.10;;;;;;5091800;28;20044;-74
2023/12/11 06:29:08;;;;;;;36.10;6.75;;;14.70;57.90;;;;;;5091301;28;20161;-73
2023/12/11 06:31:34;;;;;;;37.17;6.68;;;;;;;;;;5091544;28;20055;-74
2023/12/11 06:34:00;;;;;;;43.90;7.32;;;;;;;;;;5091383;28;20046;-74
2023/12/11 06:36:28;;;;;;;52.35;6.88;;;;;;;;;;5091254;28;20079;-73
2023/12/11 06:38:54;;;;;;;38.67;7.25;;;;;;;;;;5091349;28;20044;-74
2023/12/11 06:41:20;;;;;;;36.60;6.75;;;;;;;;;;5091046;28;20115;-73
2023/12/11 06:43:52;;;;;;;38.25;6.82;;;;;;;;;;5091091;28;20038;-74
2023/12/11 06:46:19;;;;;;;39.42;7.05;;;;;;;;;;5091179;28;20076;-75
2023/12/11 06:48:45;;;;;;;25.40;5.25;;;;;;;;;;5074031;28;20040;-74
2023/12/11 06:51:11;;;;;;;29.80;5.63;;;;;;;;;;5090779;28;20044;-73
2023/12/11 06:53:37;;;;;;;31.63;6.38;;;;;;;;;;5091044;28;20040;-73
2023/12/11 06:56:03;;;;;;;34.05;6.53;;;;;;;;;;5091251;28;20576;-74
2023/12/11 06:58:30;;;;;;;35.40;6.07;;;;;;;;;;5090914;28;20092;-74
2023/12/11 07:00:56;;;;;;;30.75;6.03;;;;;;;;;;5090567;28;20043;-74
2023/12/11 07:03:22;;;;;;;31.70;5.63;;;;;;;;;;5090905;28;20043;-74
2023/12/11 07:05:48;;;;;;;29.25;5.57;;;;;;;;;;5074044;28;20036;-74
2023/12/11 07:08:13;;;;;;;38.05;7.07;;;14.90;75.30;;;;;;5090704;28;20122;-74
2023/12/11 07:10:39;;;;;;;38.72;7.07;;;;;;;;;;5073854;28;20040;-74
2023/12/11 07:13:05;;;;;;;31.25;6.60;;;;;;;;;;5090581;28;20504;-74
2023/12/11 07:15:31;;;;;;;27.95;5.50;;;;;;;;;;5090728;28;20135;-74
2023/12/11 07:17:57;;;;;;;29.30;5.97;;;;;;;;;;5090358;28;20076;-74
2023/12/11 07:20:23;;;;;;;33.72;6.03;;;;;;;;;;5089518;28;20701;-73
2023/12/11 07:22:50;;;;;;;34.08;7.00;;;;;;;;;;5090556;28;20036;-74
2023/12/11 07:25:16;;;;;;;32.50;5.97;;;;;;;;;;5090288;28;20046;-74
2023/12/11 07:27:43;;;;;;;30.13;4.68;;;;;;;;;;5090476;28;20036;-74
2023/12/11 07:30:09;;;;;;;17.55;4.40;;;;;;;;;;5090201;28;20114;-74
2023/12/11 07:32:36;;;;;;;20.98;4.70;;;;;;;;;;5075747;28;20044;-74
2023/12/11 07:35:03;;;;;;;34.20;5.35;;;;;;;;;;5093659;28;20510;-74
2023/12/11 07:37:29;;;;;;;28.80;5.18;;;14.90;81.90;;;;;;5091110;28;20511;-74
2023/12/11 07:39:55;;;;;;;29.02;4.32;;;;;;;;;;5089920;28;20124;-74
2023/12/11 07:42:22;;;;;;;25.38;4.75;;;15.00;74.10;;;;;;5090300;28;20068;-72
2023/12/11 07:44:48;;;;;;;23.15;4.35;;;15.10;77.70;;;;;;5073206;28;20037;-74
2023/12/11 07:47:14;;;;;;;19.75;4.80;;;;;;;;;;5090077;28;20036;-74
2023/12/11 07:49:40;;;;;;;28.67;4.45;;;;;;;;;;5090109;28;20040;-73
2023/12/11 07:52:06;;;;;;;25.00;5.07;;;;;;;;;;5090572;28;20070;-73
2023/12/11 07:54:31;;;;;;;20.90;4.97;;;15.00;80.90;;;;;;5090158;28;20040;-74
2023/12/11 07:56:58;;;;;;;26.85;5.05;;;;;;;;;;5090251;28;20044;-74
2023/12/11 07:59:24;;;;;;;19.88;4.70;;;14.80;82.20;;;;;;5073145;28;20127;-74
2023/12/11 08:01:52;;;;;;;21.80;5.05;;;;;;;;;;5090366;28;20514;-74
2023/12/11 08:04:18;;;;;;;43.13;6.28;;;;;;;;;;5073270;28;20518;-74
2023/12/11 08:06:44;;;;;;;18.40;4.30;;;;;;;;;;5090250;28;20102;-73
2023/12/11 08:09:11;;;;;;;24.98;5.45;;;;;;;;;;5073063;28;20113;-73
2023/12/11 08:11:37;;;;;;;21.92;5.03;;;14.80;84.00;;;;;;5090154;28;20067;-74
2023/12/11 08:14:02;;;;;;;23.38;4.65;;;15.00;85.10;;;;;;5090059;28;20499;-74
2023/12/11 08:16:28;;;;;;;21.20;4.63;;;;;;;;;;5089872;28;20032;-74
2023/12/11 08:18:54;;;;;;;24.08;5.47;;;;;;;;;;5089939;28;20040;-74
2023/12/11 08:21:20;;;;;;;20.40;5.28;;;;;;;;;;5073109;28;20081;-74
2023/12/11 08:23:47;;;;;;;20.67;4.20;;;;;;;;;;5073002;28;20502;-74
2023/12/11 08:26:19;;;;;;;20.13;4.63;;;14.90;85.70;;;;;;5090355;28;20043;-74
2023/12/11 08:28:46;;;;;;;23.33;5.35;;;15.10;83.80;;;;;;5089922;28;20069;-74
2023/12/11 08:31:12;;;;;;;22.52;5.20;;;;;;;;;;5090336;28;20441;-74
2023/12/11 08:33:38;;;;;;;15.07;4.65;;;;;;;;;;5076854;28;20046;-73
2023/12/11 08:36:05;;;;;;;25.48;5.20;;;;;;;;;;5076812;28;20043;-74
2023/12/11 08:38:31;;;;;;;28.13;5.97;;;;;;;;;;5093849;28;20052;-73
2023/12/11 08:40:57;;;;;;;33.83;6.00;;;;;;;;;;5093781;28;20515;-73
2023/12/11 08:43:23;;;;;;;24.25;6.05;;;;;;;;;;5093562;28;20028;-74
2023/12/11 08:45:49;;;;;;;34.17;5.93;;;;;;;;;;5093627;28;20111;-74
2023/12/11 08:48:15;;;;;;;28.55;5.53;;;;;;;;;;5093540;28;20044;-76
2023/12/11 08:50:41;;;;;;;31.00;5.50;;;;;;;;;;5093541;28;20044;-75
2023/12/11 08:53:07;;;;;;;31.58;6.10;;;14.90;89.30;;;;;;5093507;28;20051;-76
2023/12/11 08:55:33;;;;;;;30.65;6.32;;;;;;;;;;5076705;28;20035;-76
2023/12/11 08:57:59;;;;;;;25.48;5.72;;;14.70;89.90;;;;;;5076618;28;20044;-76
2023/12/11 09:00:25;;;;;;;26.20;4.95;;;14.80;90.10;;;;;;5093008;28;20506;-76
2023/12/11 09:02:51;;;;;;;24.92;4.72;;;14.70;90.00;;;;;;5093481;28;20040;-75
2023/12/11 09:05:17;;;;;;;25.40;5.10;;;15.20;89.60;;;;;;5093169;28;20116;-75
2023/12/11 09:07:43;;;;;;;20.13;4.05;;;;;;;;;;5093393;28;20029;-75
2023/12/11 09:10:09;;;;;;;21.17;3.97;;;;;;;;;;5076107;28;20051;-75
2023/12/11 09:12:39;;;;;;;25.23;5.03;;;15.00;91.20;;;;;;5093123;28;20515;-76
2023/12/11 09:15:06;;;;;;;31.23;4.32;;;15.00;87.80;;;;;;5092905;28;20392;-75
2023/12/11 09:17:32;;;;;;;25.23;4.47;;;15.40;91.80;;;;;;5093165;28;20079;-75
2023/12/11 09:19:59;;;;;;;16.88;3.40;;;;;;;;;;5075883;28;20584;-75
2023/12/11 09:22:25;;;;;;;29.33;4.07;;;;;;;;;;5093240;28;20403;-76
2023/12/11 09:24:52;;;;;;;24.40;5.43;;;;;;;;;;5093159;28;20039;-75
2023/12/11 09:27:18;;;;;;;25.08;4.28;;;;;;;;;;5076025;28;20048;-75
2023/12/11 09:29:46;;;;;;;22.90;5.63;;;;;;;;;;5092494;28;20142;-75
2023/12/11 09:32:12;;;;;;;20.45;5.18;;;15.50;91.30;;;;;;5092690;28;20040;-76
2023/12/11 09:34:38;;;;;;;23.33;4.55;;;15.40;91.00;;;;;;5092753;28;20043;-76
2023/12/11 09:37:04;;;;;;;18.38;3.63;;;;;;;;;;5075691;28;20047;-74
2023/12/11 09:39:30;;;;;;;15.60;3.40;;;;;;;;;;5092263;28;20093;-75
2023/12/11 09:41:57;;;;;;;17.05;3.97;;;;;;;;;;5092401;28;20532;-76
2023/12/11 09:44:23;;;;;;;22.20;3.30;;;;;;;;;;5074630;28;20036;-75
2023/12/11 09:46:57;;;;;;;21.73;3.60;;;15.10;81.30;;;;;;5075725;28;20398;-75
2023/12/11 09:49:23;;;;;;;22.50;4.10;;;15.50;85.00;;;;;;5092386;28;20044;-76
2023/12/11 09:51:49;;;;;;;20.17;3.50;;;;;;;;;;5075409;28;20043;-75
2023/12/11 09:54:15;;;;;;;22.20;3.40;;;;;;;;;;5075168;28;20133;-76
2023/12/11 09:56:43;;;;;;;27.92;4.70;;;;;;;;;;5092162;28;20076;-75
2023/12/11 09:59:10;;;;;;;30.70;3.97;;;15.50;78.90;;;;;;5074855;28;20495;-74
2023/12/11 10:01:36;;;;;;;26.77;4.90;;;;;;;;;;5092093;28;20040;-75
2023/12/11 10:04:02;;;;;;;21.38;4.40;;;;;;;;;;5075320;28;20442;-76
2023/12/11 10:06:28;;;;;;;32.17;5.72;;;15.60;77.30;;;;;;5092335;28;20044;-76
2023/12/11 10:08:54;;;;;;;35.40;4.95;;;15.30;76.10;;;;;;5091883;28;20040;-76
2023/12/11 10:11:22;;;;;;;19.85;4.10;;;15.20;72.60;;;;;;5091713;28;20032;-75
2023/12/11 10:13:49;;;;;;;22.38;4.20;;;15.40;65.20;;;;;;5075172;28;20407;-76
2023/12/11 10:16:35;;;;;;;19.23;4.38;;;15.50;68.10;;;;;;5075272;28;20052;-75
2023/12/11 10:19:01;;;;;;;23.30;4.68;;;;;;;;;;5091711;28;20065;-76
2023/12/11 10:21:36;;;;;;;24.05;4.05;;;;;;;;;;5091466;28;20074;-76
2023/12/11 10:24:06;;;;;;;33.70;5.93;;;15.60;62.30;;;;;;5091711;28;20035;-74
2023/12/11 10:26:33;;;;;;;28.63;4.70;;;;;;;;;;5091702;28;20111;-76
2023/12/11 10:29:19;;;;;;;29.77;5.43;;;;;;;;;;5074937;28;20044;-76
2023/12/11 10:31:44;;;;;;;26.85;5.38;;;15.40;60.60;;;;;;5074817;28;20090;-76
2023/12/11 10:34:10;;;;;;;27.95;4.38;;;;;;;;;;5074480;28;20075;-75
2023/12/11 10:36:46;;;;;;;30.70;4.65;;;;;;;;;;5091462;28;20036;-75
2023/12/11 10:39:13;;;;;;;21.75;3.70;;;;;;;;;;5074238;28;20046;-75
2023/12/11 10:41:39;;;;;;;34.88;4.13;;;;;;;;;;5091605;28;20036;-75
2023/12/11 10:44:05;;;;;;;19.38;3.58;;;15.40;60.30;;;;;;5074362;28;20075;-75
2023/12/11 10:46:31;;;;;;;21.27;5.40;;;;;;;;;;5091205;28;20074;-76
2023/12/11 10:48:58;;;;;;;35.17;7.07;;;;;;;;;;5074330;28;20040;-76
2023/12/11 10:51:25;;;;;;;33.20;9.90;;;;;;;;;;5091003;28;20123;-76
2023/12/11 10:53:52;;;;;;;27.70;5.80;;;;;;;;;;5090979;28;20553;-76
2023/12/11 10:56:18;;;;;;;18.15;3.92;;;;;;;;;;5090987;28;20507;-76
2023/12/11 10:58:44;;;;;;;22.73;5.68;;;;;;;;;;5091078;28;20098;-75
2023/12/11 11:01:12;;;;;;;26.67;9.23;;;15.70;53.10;;;;;;5090770;28;20511;-76
2023/12/11 11:03:38;;;;;;;40.60;14.95;;;16.00;44.20;;;;;;5091128;28;20065;-75
2023/12/11 11:06:06;;;;;;;29.00;12.70;;;15.40;37.30;;;;;;5090880;28;20079;-76
2023/12/11 11:08:45;;;;;;;28.80;11.07;;;15.30;34.00;;;;;;5074034;28;20044;-74
2023/12/11 11:11:31;;;;;;;62.40;35.55;;;;;;;;;;5073874;28;20079;-76
2023/12/11 11:14:25;;;;;;;51.00;28.67;;;16.10;31.40;;;;;;5090668;28;20048;-75
2023/12/11 11:16:55;;;;;;;13.85;7.43;;;15.30;27.20;;;;;;5090964;28;20044;-76
2023/12/11 11:19:21;;;;;;;29.25;14.68;;;;;;;;;;5090472;28;20491;-75
2023/12/11 11:22:08;;;;;;;10.23;2.95;;;15.60;26.40;;;;;;5074148;28;20434;-75
2023/12/11 11:24:35;;;;;;;14.52;6.75;;;15.50;30.80;;;;;;5090824;28;20044;-76
2023/12/11 11:27:02;;;;;;;15.38;7.57;;;15.60;30.20;;;;;;5073756;28;20113;-75
2023/12/11 11:29:41;;;;;;;20.75;5.72;;;;;;;;;;5073782;28;20388;-75
2023/12/11 11:32:07;;;;;;;17.58;3.95;;;;;;;;;;5073738;28;20135;-76
2023/12/11 11:34:45;;;;;;;20.35;4.40;;;15.50;38.90;;;;;;5090421;28;20040;-76
2023/12/11 11:37:17;;;;;;;20.63;5.63;;;15.80;41.20;;;;;;5090562;28;20040;-76
2023/12/11 11:40:03;;;;;;;26.63;6.05;;;15.40;39.50;;;;;;5090210;28;20036;-76
2023/12/11 11:42:31;;;;;;;19.35;4.65;;;15.40;36.20;;;;;;5073715;28;20572;-76
2023/12/11 11:44:59;;;;;;;30.60;6.43;;;15.20;36.00;;;;;;5090507;28;20040;-76
2023/12/11 11:47:29;;;;;;;20.98;4.05;;;14.90;37.90;;;;;;5090428;28;20132;-76
2023/12/11 11:50:12;;;;;;;28.75;10.40;;;15.30;41.20;;;;;;5090154;28;20062;-75
2023/12/11 11:52:41;;;;;;;20.35;6.90;;;;;;;;;;5090403;28;20040;-75
2023/12/11 11:55:11;;;;;;;27.15;10.68;;;;;;;;;;5090489;28;20471;-75
2023/12/11 11:57:37;;;;;;;23.88;4.63;;;;;;;;;;5073804;28;20578;-76
2023/12/11 12:00:05;;;;;;;26.80;3.92;;;15.00;32.50;;;;;;5090051;28;20082;-75
2023/12/11 12:02:32;;;;;;;16.25;3.45;;;;;;;;;;5090507;28;20040;-75
2023/12/11 12:05:07;;;;;;;20.35;4.45;;;15.40;32.20;;;;;;5090506;28;20036;-75
2023/12/11 12:07:33;;;;;;;18.70;3.67;;;;;;;;;;5092998;28;20464;-75
2023/12/11 12:09:59;;;;;;;21.52;3.17;;;15.40;26.20;;;;;;5077597;28;20040;-75
2023/12/11 12:12:28;;;;;;;15.60;3.17;;;;;;;;;;5094612;28;20051;-75
2023/12/11 12:15:02;;;;;;;15.60;2.72;;;;;;;;;;5077249;28;20089;-75
2023/12/11 12:17:27;;;;;;;;;;;15.50;19.30;;;;;;5094820;28;20093;-75
2023/12/11 12:19:53;;;;;;;12.93;2.08;;;;;;;;;;5093855;28;19924;-75
2023/12/11 12:22:19;;;;;;;12.57;2.45;;;;;;;;;;5077122;28;20046;-76
2023/12/11 12:24:48;;;;;;;15.70;2.35;;;;;;;;;;5076845;28;20438;-74
2023/12/11 12:27:18;;;;;;;12.77;1.88;;;15.00;18.40;;;;;;5094178;28;20376;-75
2023/12/11 12:29:45;;;;;;;11.57;2.47;;;15.20;19.90;;;;;;5094090;28;20044;-75
2023/12/11 12:32:14;;;;;;;12.38;2.03;;;14.90;19.00;;;;;;5093924;28;20058;-75
2023/12/11 12:34:44;;;;;;;13.02;2.42;;;14.90;20.30;;;;;;5093718;28;20040;-76
2023/12/11 12:37:10;;;;;;;11.30;2.70;;;15.10;21.10;;;;;;5076871;28;20123;-75
2023/12/11 12:39:37;;;;;;;11.00;1.90;;;;;;;;;;5093538;28;20047;-76
2023/12/11 12:42:03;;;;;;;12.48;3.90;;;15.00;25.10;;;;;;5093714;28;20040;-75
2023/12/11 12:44:29;;;;;;;15.20;2.70;;;;;;;;;;5093534;28;20039;-75
2023/12/11 12:47:01;;;;;;;13.88;1.98;;;14.90;24.00;;;;;;5093616;28;20035;-75
2023/12/11 12:49:27;;;;;;;14.30;2.13;;;;;;;;;;5093265;28;20191;-75
2023/12/11 12:51:54;;;;;;;11.05;4.18;;;14.90;20.40;;;;;;5076658;28;20047;-75
2023/12/11 12:54:21;;;;;;;10.55;2.65;;;;;;;;;;5093296;28;20511;-75
2023/12/11 12:57:00;;;;;;;7.45;1.83;;;15.00;16.80;;;;;;5093367;28;20140;-75
2023/12/11 12:59:27;;;;;;;15.15;5.00;;;;;;;;;;5093063;28;20040;-75
2023/12/11 13:01:53;;;;;;;13.85;2.35;;;;;;;;;;5093612;28;20618;-75
2023/12/11 13:04:20;;;;;;;7.78;3.15;;;;;;;;;;5076302;28;20040;-75
2023/12/11 13:06:46;;;;;;;9.75;2.97;;;;;;;;;;5093193;28;20047;-75
2023/12/11 13:09:28;;;;;;;10.60;3.28;;;;;;;;;;5092983;28;20044;-75
2023/12/11 13:11:54;;;;;;;9.90;2.60;;;;;;;;;;5076382;28;20130;-75
2023/12/11 13:14:20;;;;;;;13.50;3.03;;;;;;;;;;5075989;28;20487;-74
2023/12/11 13:16:47;;;;;;;9.68;2.20;;;15.20;9.70;;;;;;5092998;28;20050;-75
2023/12/11 13:19:13;;;;;;;11.20;3.13;;;;;;;;;;5091409;28;20104;-75
2023/12/11 13:21:39;;;;;;;7.65;3.42;;;;;;;;;;5076457;28;20036;-74
2023/12/11 13:24:05;;;;;;;8.80;2.50;;;15.00;6.40;;;;;;5092591;28;20044;-76
2023/12/11 13:26:31;;;;;;;6.10;2.97;;;15.10;4.90;;;;;;5075960;28;20541;-75
2023/12/11 13:28:57;;;;;;;9.80;2.60;;;;;;;;;;5092645;28;20046;-76
2023/12/11 13:31:24;;;;;;;18.67;2.90;;;15.20;3.30;;;;;;5075622;28;20036;-75
2023/12/11 13:33:50;;;;;;;3.15;1.77;;;;;;;;;;5075723;28;20044;-76
2023/12/11 13:36:16;;;;;;;11.48;1.88;;;;;;;;;;5092643;28;20089;-75
2023/12/11 13:38:42;;;;;;;8.32;1.75;;;;;;;;;;5092710;28;20044;-75
2023/12/11 13:41:08;;;;;;;17.55;9.57;;;15.40;1.00;;;;;;5092385;28;20040;-75
2023/12/11 13:43:34;;;;;;;15.63;6.68;;;;;;;;;;5092406;28;20048;-76
2023/12/11 13:46:00;;;;;;;16.92;2.67;;;;;;;;;;5092433;28;20122;-75
2023/12/11 13:48:28;;;;;;;10.15;1.98;;;15.10;1.00;;;;;;5075575;28;20044;-76